Time;durP1;ratioP1;P1;durP2;ratioP2;P2;SDS_P1;SDS_P2;PMS_P1;PMS_P2;Temp;Humidity;BMP_temperature;BMP_pressure;BME280_temperature;BME280_humidity;BME280_pressure;Samples;Min_cycle;Max_cycle;Signal;HPM_P1;HPM_P2
2023/12/05 00:04:19;;;;;;;52.50;27.50;;;;;;;-1.82;64.10;99035.77;234127;213;139530;-58
2023/12/05 00:09:22;;;;;;;51.70;25.80;;;;;;;-1.82;64.24;99043.95;234181;208;149271;-58
2023/12/05 00:14:25;;;;;;;49.30;25.90;;;;;;;-1.82;64.31;99040.98;234206;214;138893;-58
2023/12/05 00:19:28;;;;;;;45.60;22.50;;;;;;;-1.77;64.54;99035.35;234177;214;138010;-57
2023/12/05 00:24:32;;;;;;;49.90;24.60;;;;;;;-1.72;64.40;99035.80;234102;213;150504;-56
2023/12/05 00:29:37;;;;;;;49.50;24.70;;;;;;;-1.66;64.52;99024.60;234262;213;139009;-60
2023/12/05 00:34:40;;;;;;;43.30;23.40;;;;;;;-1.61;64.76;99022.98;233893;213;137335;-60
2023/12/05 00:39:43;;;;;;;43.40;21.90;;;;;;;-1.61;64.93;99018.45;234110;214;149910;-56
2023/12/05 00:44:47;;;;;;;41.00;21.80;;;;;;;-1.58;64.94;99022.07;234161;213;138802;-55
2023/12/05 00:49:50;;;;;;;41.10;22.50;;;;;;;-1.57;64.99;99029.88;234261;215;137140;-56
2023/12/05 00:54:53;;;;;;;42.10;22.40;;;;;;;-1.56;64.83;99019.59;234280;216;150039;-59
2023/12/05 00:59:56;;;;;;;40.70;21.40;;;;;;;-1.55;64.68;99010.02;234469;209;138408;-59
2023/12/05 01:05:00;;;;;;;43.20;21.70;;;;;;;-1.55;64.52;99005.48;234068;214;137881;-59
2023/12/05 01:10:04;;;;;;;44.60;22.10;;;;;;;-1.58;64.60;98994.58;234073;212;149518;-54
2023/12/05 01:15:09;;;;;;;49.50;25.40;;;;;;;-1.60;64.50;98991.81;234114;215;139382;-58
2023/12/05 01:20:12;;;;;;;51.70;28.00;;;;;;;-1.62;64.27;98974.63;234228;216;138649;-58
2023/12/05 01:25:15;;;;;;;52.60;27.10;;;;;;;-1.65;64.08;98966.52;234304;215;149313;-56
2023/12/05 01:30:19;;;;;;;53.80;28.30;;;;;;;-1.70;64.06;98964.13;234353;215;139398;-58
2023/12/05 01:35:23;;;;;;;52.70;27.80;;;;;;;-1.75;63.98;98957.77;234370;213;138342;-58
2023/12/05 01:40:26;;;;;;;54.90;28.30;;;;;;;-1.79;64.02;98952.77;234155;215;149448;-58
2023/12/05 01:45:29;;;;;;;52.80;26.40;;;;;;;-1.81;64.08;98949.33;233657;214;139081;-58
2023/12/05 01:50:33;;;;;;;47.50;25.60;;;;;;;-1.81;64.13;98940.63;234254;215;137185;-59
2023/12/05 01:55:36;;;;;;;49.40;25.50;;;;;;;-1.83;64.24;98924.52;234192;215;149554;-57
2023/12/05 02:00:40;;;;;;;49.00;24.50;;;;;;;-1.81;64.34;98923.06;233810;215;138891;-56
2023/12/05 02:05:44;;;;;;;42.60;23.00;;;;;;;-1.82;64.26;98920.31;234442;208;137641;-58
2023/12/05 02:10:49;;;;;;;47.90;25.10;;;;;;;-1.82;64.41;98921.52;233636;215;149612;-59
2023/12/05 02:16:10;;;;;;;43.40;24.00;;;;;;;-1.74;64.45;98919.15;234060;215;138667;-56
2023/12/05 02:21:20;;;;;;;45.80;24.10;;;;;;;-1.74;64.36;98903.67;233463;216;137446;-60
2023/12/05 02:26:42;;;;;;;43.40;24.00;;;;;;;-1.79;64.46;98902.52;234192;215;149289;-59
2023/12/05 02:31:46;;;;;;;47.70;23.50;;;;;;;-1.86;64.42;98893.08;234204;215;138798;-59
2023/12/05 02:37:31;;;;;;;45.60;22.80;;;;;;;-1.92;64.91;98887.41;234254;215;138858;-59
2023/12/05 02:42:36;;;;;;;47.40;24.00;;;;;;;-1.90;65.04;98886.18;234243;214;150992;-58
2023/12/05 02:47:42;;;;;;;43.20;23.70;;;;;;;-1.90;64.78;98882.19;234327;215;138878;-59
2023/12/05 02:52:46;;;;;;;44.40;23.50;;;;;;;-1.92;64.82;98881.86;234275;215;138670;-59
2023/12/05 02:57:49;;;;;;;44.10;23.50;;;;;;;-1.95;64.89;98877.71;234296;213;149295;-62
2023/12/05 03:02:52;;;;;;;43.70;23.40;;;;;;;-1.95;65.00;98872.52;234060;215;138904;-62
2023/12/05 03:07:55;;;;;;;44.00;24.10;;;;;;;-1.94;64.99;98874.58;234127;214;137322;-60
2023/12/05 03:12:59;;;;;;;46.80;25.40;;;;;;;-1.91;65.00;98876.80;234251;215;149171;-59
2023/12/05 03:18:02;;;;;;;46.20;24.80;;;;;;;-1.90;64.74;98882.52;234289;216;139451;-57
2023/12/05 03:23:06;;;;;;;49.20;26.80;;;;;;;-1.92;64.69;98877.68;234298;215;137178;-56
2023/12/05 03:28:09;;;;;;;52.80;26.70;;;;;;;-1.97;64.59;98874.63;234243;215;149179;-58
2023/12/05 03:33:12;;;;;;;47.80;25.50;;;;;;;-2.03;64.73;98874.18;234224;215;138939;-58
2023/12/05 03:38:15;;;;;;;48.40;26.30;;;;;;;-2.05;64.85;98871.27;234287;215;138353;-57
2023/12/05 03:43:18;;;;;;;50.40;27.60;;;;;;;-2.08;64.81;98862.44;234215;215;149190;-59
2023/12/05 03:48:22;;;;;;;51.10;26.70;;;;;;;-2.11;64.65;98856.93;234352;215;138689;-57
2023/12/05 03:53:25;;;;;;;53.10;28.30;;;;;;;-2.17;64.53;98849.17;234314;215;137622;-59
2023/12/05 03:58:29;;;;;;;53.30;28.40;;;;;;;-2.21;64.34;98840.20;234290;215;150013;-58
2023/12/05 04:03:32;;;;;;;55.40;28.10;;;;;;;-2.26;64.09;98841.31;234114;215;140146;-57
2023/12/05 04:08:35;;;;;;;57.20;29.20;;;;;;;-2.33;64.07;98836.38;233935;214;138546;-55
2023/12/05 04:13:38;;;;;;;52.00;28.20;;;;;;;-2.36;64.18;98838.52;234256;215;149296;-57
2023/12/05 04:18:42;;;;;;;62.10;31.10;;;;;;;-2.37;64.35;98837.29;234248;215;139904;-59
2023/12/05 04:23:46;;;;;;;57.00;28.90;;;;;;;-2.39;64.19;98832.46;234381;215;137201;-56
2023/12/05 04:28:49;;;;;;;57.60;30.00;;;;;;;-2.43;64.39;98829.21;234235;215;149984;-58
2023/12/05 04:33:53;;;;;;;55.90;29.60;;;;;;;-2.44;64.65;98827.15;234247;215;139368;-59
2023/12/05 04:38:56;;;;;;;54.60;27.90;;;;;;;-2.43;64.82;98827.29;234239;215;138140;-59
2023/12/05 04:44:00;;;;;;;49.60;26.90;;;;;;;-2.37;64.90;98829.65;234226;215;149763;-59
2023/12/05 04:49:05;;;;;;;52.00;27.20;;;;;;;-2.29;64.82;98832.15;234199;215;138822;-63
2023/12/05 04:54:08;;;;;;;49.40;26.20;;;;;;;-2.27;64.85;98837.16;234158;215;138411;-58
2023/12/05 04:59:11;;;;;;;51.20;26.90;;;;;;;-2.26;64.86;98836.27;234145;212;149364;-57
2023/12/05 05:04:14;;;;;;;84.40;48.00;;;;;;;-2.22;65.44;98836.21;234261;214;139473;-56
2023/12/05 05:09:17;;;;;;;90.20;47.10;;;;;;;-2.04;65.32;98832.66;233794;214;137814;-57
2023/12/05 05:14:21;;;;;;;55.20;28.40;;;;;;;-1.94;65.26;98823.64;234125;215;149667;-59
2023/12/05 05:19:24;;;;;;;49.50;27.30;;;;;;;-1.95;64.47;98821.41;234049;215;138994;-57
2023/12/05 05:24:27;;;;;;;46.30;25.70;;;;;;;-2.01;64.34;98819.76;234195;215;139415;-57
2023/12/05 05:29:30;;;;;;;49.20;26.40;;;;;;;-2.07;64.45;98819.84;234336;215;151177;-57
2023/12/05 05:34:34;;;;;;;45.90;26.00;;;;;;;-2.11;64.61;98811.05;234241;214;139114;-58
2023/12/05 05:39:37;;;;;;;591.00;399.40;;;;;;;-2.08;64.95;98807.18;234066;215;138746;-56
2023/12/05 05:44:40;;;;;;;63.90;35.90;;;;;;;-1.95;65.17;98813.23;234191;214;150337;-56
2023/12/05 05:49:44;;;;;;;53.10;29.20;;;;;;;-1.96;64.34;98811.68;234210;214;145994;-55
2023/12/05 05:54:49;;;;;;;52.30;27.50;;;;;;;-2.01;64.21;98814.89;234299;215;137225;-56
2023/12/05 05:59:52;;;;;;;47.40;26.90;;;;;;;-2.06;64.25;98813.23;234367;215;150450;-56
2023/12/05 06:04:55;;;;;;;47.80;27.10;;;;;;;-2.11;64.47;98817.46;234067;212;139363;-57
2023/12/05 06:09:59;;;;;;;47.80;25.50;;;;;;;-2.11;64.51;98814.86;234313;214;138272;-58
2023/12/05 06:15:03;;;;;;;50.20;27.00;;;;;;;-2.12;64.64;98814.88;233889;214;149494;-59
2023/12/05 06:20:08;;;;;;;49.50;26.60;;;;;;;-2.14;64.56;98810.91;233951;208;154506;-56
2023/12/05 06:25:11;;;;;;;52.20;27.70;;;;;;;-2.17;64.54;98814.59;234232;215;138727;-56
2023/12/05 06:30:15;;;;;;;54.90;29.90;;;;;;;-2.01;66.13;98811.23;234199;213;150074;-54
2023/12/05 06:35:28;;;;;;;48.10;27.80;;;;;;;-1.86;64.64;98812.05;234394;215;140064;-56
2023/12/05 06:40:32;;;;;;;53.00;28.20;;;;;;;-1.93;64.43;98814.95;234212;215;138310;-57
2023/12/05 06:45:35;;;;;;;50.90;27.40;;;;;;;-1.93;64.29;98811.12;234199;215;149548;-56
2023/12/05 06:50:38;;;;;;;49.80;27.70;;;;;;;-1.96;64.16;98808.38;234289;215;139575;-58
2023/12/05 06:55:42;;;;;;;54.30;29.50;;;;;;;-1.99;64.32;98818.69;234156;208;140753;-56
2023/12/05 07:00:45;;;;;;;50.40;27.20;;;;;;;-1.96;64.57;98827.85;234000;215;149958;-58
2023/12/05 07:05:48;;;;;;;49.80;26.80;;;;;;;-1.93;64.63;98826.06;234351;215;138864;-61
2023/12/05 07:10:52;;;;;;;49.50;26.50;;;;;;;-1.88;64.69;98828.77;234257;215;137897;-62
2023/12/05 07:15:56;;;;;;;44.90;25.70;;;;;;;-1.82;64.59;98830.59;234250;215;150476;-61
2023/12/05 07:21:00;;;;;;;47.10;26.30;;;;;;;-1.73;64.55;98828.20;234128;215;138872;-61
2023/12/05 07:26:04;;;;;;;52.00;27.20;;;;;;;-1.71;64.34;98831.80;234184;212;139039;-60
2023/12/05 07:31:07;;;;;;;46.30;25.50;;;;;;;-1.69;64.35;98835.95;233714;214;149263;-59
2023/12/05 07:36:11;;;;;;;44.50;25.30;;;;;;;-1.68;63.96;98836.27;234388;213;139519;-57
2023/12/05 07:41:22;;;;;;;47.70;25.50;;;;;;;-1.65;63.86;98834.66;234320;215;137682;-59
2023/12/05 07:46:25;;;;;;;48.90;25.60;;;;;;;-1.62;63.96;98837.23;234283;215;150131;-61
2023/12/05 07:51:28;;;;;;;45.60;26.70;;;;;;;-1.54;63.53;98843.17;233686;214;139298;-56
2023/12/05 07:56:32;;;;;;;44.60;25.50;;;;;;;-1.55;63.30;98840.60;234154;214;138155;-61
2023/12/05 08:01:35;;;;;;;47.30;27.00;;;;;;;-1.55;63.10;98837.11;234192;215;149077;-57
2023/12/05 08:06:38;;;;;;;47.20;26.90;;;;;;;-1.56;63.04;98836.60;234262;215;138865;-57
2023/12/05 08:11:42;;;;;;;44.00;26.80;;;;;;;-1.50;62.91;98835.97;234395;215;137654;-61
2023/12/05 08:16:46;;;;;;;48.10;27.80;;;;;;;-1.45;62.61;98834.86;234269;215;149424;-61
2023/12/05 08:21:49;;;;;;;52.20;28.50;;;;;;;-1.43;62.45;98830.30;233876;213;139969;-63
2023/12/05 08:26:53;;;;;;;41.60;25.50;;;;;;;-1.41;62.27;98822.09;234246;213;137705;-62
2023/12/05 08:31:56;;;;;;;49.30;27.40;;;;;;;-1.41;62.32;98822.61;234267;213;149491;-60
2023/12/05 08:37:00;;;;;;;55.40;29.60;;;;;;;-1.39;61.95;98827.98;234262;214;137808;-60
2023/12/05 08:42:04;;;;;;;50.40;27.00;;;;;;;-1.39;61.76;98833.19;234216;215;140841;-60
2023/12/05 08:47:07;;;;;;;59.20;29.10;;;;;;;-1.37;61.58;98836.80;234286;214;150025;-59
2023/12/05 08:52:10;;;;;;;48.50;27.90;;;;;;;-1.36;61.77;98834.70;234138;215;138569;-57
2023/12/05 08:57:14;;;;;;;52.50;29.60;;;;;;;-1.28;61.74;98836.48;234265;214;137160;-60
2023/12/05 09:02:19;;;;;;;44.60;26.80;;;;;;;-1.22;61.76;98837.77;234219;215;149714;-60
2023/12/05 09:07:23;;;;;;;49.00;27.30;;;;;;;-1.08;61.87;98839.96;234266;215;139522;-61
2023/12/05 09:12:26;;;;;;;46.20;26.30;;;;;;;-1.02;61.54;98837.73;234436;214;137044;-59
2023/12/05 09:17:31;;;;;;;53.40;28.00;;;;;;;-0.93;61.47;98845.05;234342;213;148462;-60
2023/12/05 09:22:35;;;;;;;;;;;;;;;-0.76;61.44;98841.25;233312;214;139401;-58
2023/12/05 09:27:38;;;;;;;46.40;27.30;;;;;;;-0.58;61.03;98840.73;234042;209;134676;-61
2023/12/05 09:32:42;;;;;;;44.60;26.10;;;;;;;-0.43;61.04;98838.84;234259;215;149504;-61
2023/12/05 09:37:45;;;;;;;44.80;25.80;;;;;;;-0.21;60.93;98832.26;234209;215;138865;-58
2023/12/05 09:42:48;;;;;;;44.90;27.10;;;;;;;-0.01;60.60;98826.23;234230;215;137556;-59
2023/12/05 09:47:55;;;;;;;47.70;26.90;;;;;;;0.17;60.06;98824.42;234351;215;149515;-57
2023/12/05 09:52:59;;;;;;;44.80;27.30;;;;;;;0.35;60.00;98820.34;233978;215;138909;-57
2023/12/05 09:58:03;;;;;;;45.60;27.30;;;;;;;0.51;59.46;98820.10;234166;216;138384;-59
2023/12/05 10:03:06;;;;;;;47.40;28.30;;;;;;;0.65;59.20;98817.84;234295;213;149603;-66
2023/12/05 10:08:11;;;;;;;45.80;26.90;;;;;;;0.79;58.90;98819.24;234222;214;139701;-60
2023/12/05 10:13:17;;;;;;;47.40;27.50;;;;;;;0.83;58.49;98814.39;234218;215;138213;-59
2023/12/05 10:18:21;;;;;;;;;;;;;;;0.95;58.45;98805.52;234368;214;149581;-61
2023/12/05 10:23:24;;;;;;;45.50;26.80;;;;;;;1.12;58.33;98806.63;233978;215;139010;-58
2023/12/05 10:28:28;;;;;;;46.90;26.70;;;;;;;1.24;58.08;98802.11;234246;213;138293;-61
2023/12/05 10:33:31;;;;;;;45.00;27.60;;;;;;;1.34;57.86;98799.73;234300;213;150522;-60
2023/12/05 10:38:36;;;;;;;52.50;29.50;;;;;;;1.40;57.53;98795.73;234171;214;138844;-57
2023/12/05 10:43:48;;;;;;;56.70;31.60;;;;;;;1.38;57.35;98786.68;233899;213;136875;-58
2023/12/05 10:48:52;;;;;;;55.10;30.00;;;;;;;1.30;57.27;98777.11;234230;213;149111;-59
2023/12/05 10:53:55;;;;;;;49.30;30.10;;;;;;;1.23;57.41;98772.61;234245;213;139424;-58
2023/12/05 10:59:00;;;;;;;276.20;166.40;;;;;;;1.18;57.76;98771.00;233788;208;137604;-59
2023/12/05 11:04:05;;;;;;;66.30;37.80;;;;;;;1.41;59.03;98769.80;234046;212;149197;-58
2023/12/05 11:09:09;;;;;;;56.30;31.50;;;;;;;1.43;57.71;98767.32;234043;213;138567;-57
2023/12/05 11:14:14;;;;;;;54.20;30.20;;;;;;;1.32;57.50;98767.10;234121;214;137663;-58
2023/12/05 11:20:00;;;;;;;49.40;29.10;;;;;;;1.27;57.72;98768.11;234176;209;150652;-59
2023/12/05 11:25:14;;;;;;;49.10;29.50;;;;;;;1.25;57.93;98757.86;234131;213;138823;-57
2023/12/05 11:30:32;;;;;;;51.10;28.10;;;;;;;1.25;57.94;98757.36;234126;214;137474;-57
2023/12/05 11:35:51;;;;;;;43.80;26.30;;;;;;;1.23;57.88;98758.48;233859;212;150135;-58
2023/12/05 11:41:18;;;;;;;47.40;27.20;;;;;;;1.24;58.01;98763.13;234143;213;139663;-58
2023/12/05 11:46:21;;;;;;;48.90;28.10;;;;;;;1.20;57.93;98759.41;234146;216;138235;-58
2023/12/05 11:51:24;;;;;;;49.30;26.70;;;;;;;1.17;58.07;98759.85;234086;213;150137;-58
2023/12/05 11:56:28;;;;;;;42.00;26.00;;;;;;;1.20;58.18;98759.07;233738;212;139551;-56
2023/12/05 12:01:32;;;;;;;43.90;26.20;;;;;;;1.16;57.99;98760.75;234225;212;137308;-56
2023/12/05 12:06:36;;;;;;;379.90;226.10;;;;;;;1.20;59.36;98761.33;234148;213;149432;-44
2023/12/05 12:11:39;;;;;;;55.10;33.70;;;;;;;1.50;61.63;98757.30;234319;213;138630;-56
2023/12/05 12:16:44;;;;;;;50.10;28.30;;;;;;;1.49;58.39;98754.02;234186;215;136929;-58
2023/12/05 12:21:47;;;;;;;43.80;26.40;;;;;;;1.41;58.30;98749.34;234184;214;150045;-59
2023/12/05 12:26:54;;;;;;;45.30;28.00;;;;;;;1.37;58.21;98741.63;234237;215;139289;-58
2023/12/05 12:32:10;;;;;;;44.00;26.90;;;;;;;1.39;58.48;98741.02;234185;215;136929;-59
2023/12/05 12:37:14;;;;;;;42.40;26.20;;;;;;;1.55;58.51;98737.77;233986;214;150971;-57
2023/12/05 12:42:24;;;;;;;51.40;30.10;;;;;;;1.76;59.17;98734.48;234343;208;139650;-59
2023/12/05 12:47:27;;;;;;;44.30;26.40;;;;;;;1.91;58.49;98729.47;234240;213;137600;-58
2023/12/05 12:52:30;;;;;;;43.30;27.20;;;;;;;1.92;57.80;98737.99;234174;209;149490;-60
2023/12/05 12:57:34;;;;;;;45.50;26.60;;;;;;;1.90;57.77;98733.00;234139;215;139636;-58
2023/12/05 13:02:37;;;;;;;44.20;26.50;;;;;;;1.81;57.73;98731.70;234196;215;137977;-59
2023/12/05 13:07:40;;;;;;;172.50;104.30;;;;;;;1.74;58.17;98732.27;234152;216;150246;-57
2023/12/05 13:12:44;;;;;;;53.00;31.40;;;;;;;1.80;58.61;98733.84;234262;215;140242;-57
2023/12/05 13:18:21;;;;;;;47.10;29.00;;;;;;;1.75;58.02;98740.13;234394;209;137540;-57
2023/12/05 13:23:25;;;;;;;47.40;27.30;;;;;;;1.67;57.88;98746.66;234060;214;149227;-61
2023/12/05 13:28:28;;;;;;;47.40;27.10;;;;;;;1.62;57.80;98748.89;234079;213;139480;-58
2023/12/05 13:33:31;;;;;;;47.10;27.60;;;;;;;1.56;57.73;98745.59;234245;215;137861;-59
2023/12/05 13:38:35;;;;;;;55.10;28.90;;;;;;;1.49;57.86;98751.04;234220;214;149483;-57
2023/12/05 13:43:38;;;;;;;369.30;203.10;;;;;;;1.43;58.06;98759.27;234112;215;139376;-58
2023/12/05 13:48:41;;;;;;;55.20;32.70;;;;;;;1.43;58.70;98762.41;234253;213;137377;-58
2023/12/05 13:53:45;;;;;;;46.80;28.90;;;;;;;1.31;58.06;98756.13;234330;215;150228;-59
2023/12/05 13:58:48;;;;;;;52.40;29.70;;;;;;;1.15;58.11;98753.95;234192;215;138628;-57
2023/12/05 14:03:51;;;;;;;52.30;29.30;;;;;;;1.00;58.20;98751.42;234240;215;136692;-59
2023/12/05 14:08:55;;;;;;;52.00;30.60;;;;;;;0.92;58.44;98755.83;234205;208;149135;-58
2023/12/05 14:13:58;;;;;;;57.10;32.20;;;;;;;0.84;58.88;98752.93;233972;215;138608;-57
2023/12/05 14:19:01;;;;;;;52.70;31.00;;;;;;;0.72;58.92;98750.63;234240;214;138453;-58
2023/12/05 14:24:05;;;;;;;51.80;29.50;;;;;;;0.62;59.12;98750.19;234407;215;150071;-59
2023/12/05 14:29:08;;;;;;;52.80;30.50;;;;;;;0.52;59.40;98758.67;234205;215;138726;-57
2023/12/05 14:34:11;;;;;;;49.40;29.40;;;;;;;0.46;59.64;98765.77;234147;214;138111;-58
2023/12/05 14:39:17;;;;;;;49.20;28.40;;;;;;;0.50;61.25;98772.31;234032;214;149595;-57
2023/12/05 14:44:20;;;;;;;47.80;26.80;;;;;;;0.54;59.69;98770.48;233126;214;139361;-59
2023/12/05 14:49:23;;;;;;;45.20;26.60;;;;;;;0.41;59.68;98768.35;234199;213;137349;-57
2023/12/05 14:54:29;;;;;;;46.90;27.10;;;;;;;0.29;59.76;98775.98;233962;209;149999;-54
2023/12/05 14:59:32;;;;;;;49.60;26.80;;;;;;;0.18;59.64;98778.37;233966;214;139902;-54
2023/12/05 15:04:37;;;;;;;591.90;396.60;;;;;;;0.10;60.31;98777.86;234170;209;137575;-54
2023/12/05 15:09:40;;;;;;;62.80;36.50;;;;;;;0.21;61.24;98778.64;234157;216;150152;-57
2023/12/05 15:14:47;;;;;;;48.10;27.50;;;;;;;0.10;60.06;98791.09;234090;213;138652;-58
2023/12/05 15:19:51;;;;;;;48.90;28.40;;;;;;;-0.06;60.04;98795.15;234128;214;138438;-58
2023/12/05 15:25:17;;;;;;;46.40;28.00;;;;;;;-0.19;60.04;98798.95;234163;213;149010;-57
2023/12/05 15:30:21;;;;;;;54.30;28.80;;;;;;;-0.32;60.20;98795.90;234220;215;138765;-57
2023/12/05 15:35:24;;;;;;;64.10;35.70;;;;;;;-0.44;60.25;98792.16;234177;215;139281;-58
2023/12/05 15:40:27;;;;;;;63.60;36.00;;;;;;;-0.57;60.38;98794.18;234089;213;149848;-57
2023/12/05 15:45:30;;;;;;;70.60;38.40;;;;;;;-0.69;60.28;98793.92;233908;213;139309;-57
2023/12/05 15:50:34;;;;;;;69.20;37.80;;;;;;;-0.83;60.41;98791.92;234120;208;137191;-59
2023/12/05 15:55:37;;;;;;;71.70;38.50;;;;;;;-0.96;60.59;98791.84;234071;214;149356;-59
2023/12/05 16:00:42;;;;;;;70.70;38.60;;;;;;;-1.08;60.42;98797.30;234129;208;138721;-57
2023/12/05 16:05:45;;;;;;;71.30;40.00;;;;;;;-1.21;60.46;98791.44;234215;213;138340;-56
2023/12/05 16:10:50;;;;;;;74.60;41.90;;;;;;;-1.33;60.44;98792.71;234126;209;149464;-56
2023/12/05 16:15:54;;;;;;;69.20;40.90;;;;;;;-1.44;60.42;98789.44;234074;214;139476;-56
2023/12/05 16:20:57;;;;;;;74.40;41.00;;;;;;;-1.58;60.48;98791.41;234154;208;137225;-58
2023/12/05 16:26:03;;;;;;;419.90;267.50;;;;;;;-1.73;62.23;98788.02;234186;213;149643;-56
2023/12/05 16:31:07;;;;;;;94.50;50.50;;;;;;;-1.40;62.34;98788.14;234110;213;138897;-59
2023/12/05 16:36:10;;;;;;;81.50;44.80;;;;;;;-1.50;60.29;98781.18;234295;213;137176;-54
2023/12/05 16:41:13;;;;;;;83.10;44.10;;;;;;;-1.73;60.20;98784.71;234247;216;151313;-55
2023/12/05 16:46:18;;;;;;;85.70;44.60;;;;;;;-1.88;60.39;98785.48;234099;212;138970;-56
2023/12/05 16:51:21;;;;;;;81.00;43.50;;;;;;;-2.04;60.41;98787.13;234098;215;138261;-56
2023/12/05 16:56:27;;;;;;;83.90;44.30;;;;;;;-2.19;60.71;98791.53;233979;213;149315;-58
2023/12/05 17:01:31;;;;;;;77.60;41.80;;;;;;;-2.28;60.84;98789.21;234167;213;139511;-57
2023/12/05 17:06:34;;;;;;;85.70;42.80;;;;;;;-2.36;60.70;98793.69;234223;213;137445;-57
2023/12/05 17:11:38;;;;;;;85.90;44.70;;;;;;;-2.46;60.81;98791.73;234262;214;149964;-57
2023/12/05 17:16:41;;;;;;;82.80;44.20;;;;;;;-2.50;60.87;98791.80;234171;213;139560;-56
2023/12/05 17:21:44;;;;;;;82.80;45.90;;;;;;;-2.57;60.70;98786.16;234215;212;137979;-57
2023/12/05 17:26:48;;;;;;;94.20;50.90;;;;;;;-2.70;60.88;98788.39;234171;213;150431;-58
2023/12/05 17:31:51;;;;;;;104.30;54.10;;;;;;;-2.77;61.18;98791.10;234101;212;140006;-57
2023/12/05 17:36:54;;;;;;;107.70;54.90;;;;;;;-2.81;61.15;98788.70;233636;208;137596;-61
2023/12/05 17:41:57;;;;;;;102.90;53.80;;;;;;;-2.86;61.23;98787.40;234321;213;149334;-58
2023/12/05 17:47:01;;;;;;;195.60;111.80;;;;;;;-2.90;61.39;98791.96;234103;209;139645;-56
2023/12/05 17:52:05;;;;;;;124.50;63.10;;;;;;;-2.55;65.04;98791.16;234034;213;137741;-58
2023/12/05 17:57:10;;;;;;;116.20;57.80;;;;;;;-2.48;61.32;98793.15;234075;212;149065;-59
2023/12/05 18:02:14;;;;;;;106.80;56.50;;;;;;;-2.69;60.58;98808.54;234147;213;140043;-59
2023/12/05 18:07:19;;;;;;;110.60;55.10;;;;;;;-2.88;60.64;98815.00;234223;213;137356;-55
2023/12/05 18:12:42;;;;;;;105.40;55.80;;;;;;;-3.06;60.56;98819.72;234175;213;148117;-58
2023/12/05 18:17:46;;;;;;;105.10;52.50;;;;;;;-3.20;60.87;98825.60;234213;208;138848;-57
2023/12/05 18:22:49;;;;;;;109.40;57.30;;;;;;;-3.28;61.00;98827.59;234080;213;137602;-60
2023/12/05 18:27:53;;;;;;;105.60;54.50;;;;;;;-3.34;61.00;98829.73;234140;213;151371;-54
2023/12/05 18:32:57;;;;;;;111.50;55.40;;;;;;;-3.40;61.15;98828.73;234159;213;138947;-60
2023/12/05 18:38:01;;;;;;;113.80;57.60;;;;;;;-3.48;60.92;98830.22;234113;212;138428;-59
2023/12/05 18:43:05;;;;;;;121.20;57.80;;;;;;;-3.59;60.90;98835.16;234143;209;149307;-59
2023/12/05 18:48:08;;;;;;;119.90;58.00;;;;;;;-3.68;61.23;98831.09;234252;213;139854;-58
2023/12/05 18:53:12;;;;;;;112.00;54.50;;;;;;;-3.74;61.44;98829.22;234125;213;138212;-58
2023/12/05 18:58:16;;;;;;;190.50;99.70;;;;;;;-3.64;63.42;98827.06;234082;213;149375;-59
2023/12/05 19:03:19;;;;;;;121.10;60.00;;;;;;;-3.22;64.48;98822.67;234162;208;139641;-63
2023/12/05 19:08:23;;;;;;;124.30;58.90;;;;;;;-3.14;61.54;98829.18;234207;213;138400;-58
2023/12/05 19:13:26;;;;;;;115.10;57.20;;;;;;;-3.30;61.15;98836.64;234147;208;150615;-56
2023/12/05 19:18:29;;;;;;;120.40;58.50;;;;;;;-3.43;61.22;98834.69;234232;214;138591;-55
2023/12/05 19:23:33;;;;;;;120.90;59.50;;;;;;;-3.58;61.00;98840.36;233952;213;138429;-55
2023/12/05 19:28:37;;;;;;;118.90;56.60;;;;;;;-3.70;61.09;98841.34;233911;213;150253;-59
2023/12/05 19:33:54;;;;;;;121.60;61.60;;;;;;;-3.64;62.92;98842.48;234102;213;140753;-59
2023/12/05 19:38:57;;;;;;;120.60;60.20;;;;;;;-3.62;62.99;98840.21;234193;213;137710;-60
2023/12/05 19:44:00;;;;;;;122.10;61.30;;;;;;;-3.68;61.01;98844.26;234108;213;150450;-61
2023/12/05 19:49:04;;;;;;;124.70;60.60;;;;;;;-3.75;60.91;98845.88;234134;213;138896;-61
2023/12/05 19:54:07;;;;;;;124.30;60.60;;;;;;;-3.90;60.85;98847.89;234402;209;138547;-62
2023/12/05 19:59:11;;;;;;;119.60;59.50;;;;;;;-4.00;61.04;98845.02;234215;215;149540;-62
2023/12/05 20:04:14;;;;;;;127.00;60.40;;;;;;;-4.03;61.12;98850.56;234032;214;138892;-59
2023/12/05 20:09:18;;;;;;;122.90;61.60;;;;;;;-4.11;61.29;98853.91;234047;214;137367;-61
2023/12/05 20:14:21;;;;;;;124.20;60.00;;;;;;;-4.13;61.53;98852.38;234224;213;149966;-60
2023/12/05 20:19:26;;;;;;;;;;;;;;;-4.18;61.75;98857.59;234171;213;138640;-59
2023/12/05 20:24:30;;;;;;;123.30;56.20;;;;;;;-4.17;61.93;98859.15;234569;213;135751;-60
2023/12/05 20:29:34;;;;;;;118.10;58.80;;;;;;;-4.16;62.09;98861.23;233825;213;151700;-65
2023/12/05 20:34:37;;;;;;;120.70;57.30;;;;;;;-4.18;62.32;98856.55;234126;215;138808;-62
2023/12/05 20:39:42;;;;;;;112.10;55.60;;;;;;;-4.07;62.63;98850.42;234120;214;137569;-61
2023/12/05 20:44:45;;;;;;;120.60;58.80;;;;;;;-4.01;62.60;98859.92;234127;214;150027;-61
2023/12/05 20:49:48;;;;;;;119.80;57.80;;;;;;;-3.95;62.17;98861.78;234183;213;139534;-59
2023/12/05 20:54:52;;;;;;;125.50;59.70;;;;;;;-3.98;62.01;98867.69;234187;214;138496;-61
2023/12/05 20:59:55;;;;;;;116.00;57.10;;;;;;;-3.96;62.47;98862.65;234267;214;150896;-60
2023/12/05 21:04:58;;;;;;;121.70;59.10;;;;;;;-3.91;62.79;98868.86;234208;209;138855;-61
2023/12/05 21:10:02;;;;;;;117.00;57.60;;;;;;;-3.84;63.12;98865.36;234177;213;137412;-59
2023/12/05 21:15:07;;;;;;;123.60;58.70;;;;;;;-3.71;63.33;98861.44;234165;213;149601;-59
2023/12/05 21:20:10;;;;;;;116.80;59.30;;;;;;;-3.64;63.53;98858.95;234140;214;138731;-62
2023/12/05 21:25:14;;;;;;;117.60;59.10;;;;;;;-3.56;64.00;98850.23;234153;215;140494;-60
2023/12/05 21:30:17;;;;;;;105.00;53.10;;;;;;;-3.44;64.62;98844.73;234317;213;149438;-61
2023/12/05 21:35:21;;;;;;;108.90;54.60;;;;;;;-3.28;64.96;98841.64;233703;214;139931;-56
2023/12/05 21:40:24;;;;;;;115.80;58.80;;;;;;;-3.20;64.61;98847.64;233839;214;138316;-58
2023/12/05 21:45:27;;;;;;;117.30;57.00;;;;;;;-3.12;64.44;98839.05;234274;215;149399;-61
2023/12/05 21:50:31;;;;;;;103.70;55.00;;;;;;;-3.08;64.47;98833.98;234169;215;139349;-61
2023/12/05 21:55:34;;;;;;;116.50;55.40;;;;;;;-3.02;64.61;98836.17;234197;215;138133;-61
2023/12/05 22:00:37;;;;;;;114.20;57.60;;;;;;;-2.95;64.55;98837.48;234158;215;149361;-62
2023/12/05 22:05:41;;;;;;;109.00;56.00;;;;;;;-2.92;64.78;98841.09;234300;215;138689;-64
2023/12/05 22:10:44;;;;;;;107.10;56.20;;;;;;;-2.87;64.66;98853.70;234078;215;137388;-62
2023/12/05 22:15:47;;;;;;;117.00;57.10;;;;;;;-2.79;64.84;98854.14;234300;215;149877;-60
2023/12/05 22:20:51;;;;;;;113.20;55.20;;;;;;;-2.66;64.89;98862.50;234223;215;139055;-61
2023/12/05 22:25:58;;;;;;;117.20;58.00;;;;;;;-2.61;64.93;98869.20;234213;214;137862;-61
2023/12/05 22:31:04;;;;;;;121.90;57.80;;;;;;;-2.56;65.00;98869.85;233774;215;150091;-62
2023/12/05 22:36:08;;;;;;;109.90;54.80;;;;;;;-2.52;65.50;98875.35;234280;214;139267;-63
2023/12/05 22:41:11;;;;;;;112.90;57.30;;;;;;;-2.41;65.70;98872.96;234208;215;138553;-65
2023/12/05 22:46:15;;;;;;;109.40;56.10;;;;;;;-2.33;65.67;98871.98;234211;215;150525;-63
2023/12/05 22:51:19;;;;;;;106.90;55.20;;;;;;;-2.23;66.16;98868.56;233770;215;140090;-66
2023/12/05 22:56:22;;;;;;;109.60;56.10;;;;;;;-2.16;66.32;98857.34;234320;215;138501;-64
2023/12/05 23:01:25;;;;;;;116.90;57.50;;;;;;;-2.08;66.46;98854.45;234260;214;149505;-64
2023/12/05 23:06:29;;;;;;;115.40;54.90;;;;;;;-2.03;66.36;98851.60;234224;215;138897;-64